createdAt,value
2017-04-16T00:00:25.474Z,980.2
2017-04-16T00:01:28.569Z,980.1
2017-04-16T00:02:30.986Z,980.2
2017-04-16T00:03:34.250Z,980.1
2017-04-16T00:04:36.660Z,980.2
2017-04-16T00:05:39.056Z,980.2
2017-04-16T00:06:41.420Z,979.9
2017-04-16T00:07:43.824Z,980.1
2017-04-16T00:08:46.250Z,980.1
2017-04-16T00:09:48.653Z,980.1
2017-04-16T00:10:51.018Z,980.2
2017-04-16T00:11:53.433Z,980.1
2017-04-16T00:12:56.280Z,980.1
2017-04-16T00:13:58.709Z,980.1
2017-04-16T00:15:01.150Z,980.1
2017-04-16T00:16:03.568Z,980.1
2017-04-16T00:17:05.998Z,980.1
2017-04-16T00:18:08.387Z,980.1
2017-04-16T00:19:10.828Z,980.1
2017-04-16T00:20:13.188Z,980.1
2017-04-16T00:21:15.603Z,980
2017-04-16T00:22:17.985Z,980.1
2017-04-16T00:23:20.425Z,980.1
2017-04-16T00:24:22.833Z,980.1
2017-04-16T00:25:25.529Z,980.1
2017-04-16T00:26:28.009Z,980.1
2017-04-16T00:27:30.456Z,980
2017-04-16T00:28:32.931Z,980
2017-04-16T00:29:35.364Z,980.1
2017-04-16T00:30:37.849Z,980.1
2017-04-16T00:31:40.305Z,980
2017-04-16T00:32:42.718Z,980
2017-04-16T00:33:45.206Z,980.1
2017-04-16T00:34:47.658Z,980.1
2017-04-16T00:35:50.094Z,980
2017-04-16T00:36:52.520Z,980.1
2017-04-16T00:37:54.938Z,980.1
2017-04-16T00:38:57.313Z,979.8
2017-04-16T00:39:59.766Z,980.1
2017-04-16T00:41:02.734Z,980.1
2017-04-16T00:42:05.141Z,979.9
2017-04-16T00:43:07.516Z,980.1
2017-04-16T00:44:09.981Z,980.1
2017-04-16T00:45:12.394Z,980.1
2017-04-16T00:46:14.858Z,980.1
2017-04-16T00:47:17.253Z,980.1
2017-04-16T00:48:19.632Z,980.1
2017-04-16T00:49:22.086Z,980.1
2017-04-16T00:50:24.502Z,980.1
2017-04-16T00:51:26.947Z,980.1
2017-04-16T00:52:29.348Z,980.1
2017-04-16T00:53:31.845Z,980.2
2017-04-16T00:54:34.283Z,980.1
2017-04-16T00:55:36.674Z,980.1
2017-04-16T00:56:39.435Z,980.2
2017-04-16T00:57:41.854Z,980.2
2017-04-16T00:58:44.307Z,980.2
2017-04-16T00:59:46.697Z,980.2
2017-04-16T01:00:49.133Z,980.1
2017-04-16T01:01:51.550Z,980.1
2017-04-16T01:02:53.988Z,980.1
2017-04-16T01:03:56.717Z,980.2
2017-04-16T01:04:59.174Z,980.1
2017-04-16T01:06:01.570Z,980.3
2017-04-16T01:07:04.015Z,980.3
2017-04-16T01:08:06.385Z,980.3
2017-04-16T01:09:08.776Z,980.2
2017-04-16T01:10:11.164Z,980.1
2017-04-16T01:11:13.568Z,980.1
2017-04-16T01:12:15.980Z,979.9
2017-04-16T01:13:18.403Z,980.3
2017-04-16T01:14:20.820Z,980.2
2017-04-16T01:15:23.252Z,980
2017-04-16T01:16:26.350Z,980.2
2017-04-16T01:17:28.847Z,980.3
2017-04-16T01:18:31.232Z,980.2
2017-04-16T01:19:33.596Z,980.2
2017-04-16T01:20:35.998Z,980.3
2017-04-16T01:21:38.353Z,980.2
2017-04-16T01:22:40.777Z,980.2
2017-04-16T01:23:43.201Z,980.2
2017-04-16T01:24:45.624Z,980.2
2017-04-16T01:25:48.038Z,980.2
2017-04-16T01:26:51.050Z,980.2
2017-04-16T01:27:53.522Z,980.3
2017-04-16T01:28:55.971Z,980.2
2017-04-16T01:29:58.412Z,980.2
2017-04-16T01:31:00.802Z,980.3
2017-04-16T01:32:03.210Z,980.3
2017-04-16T01:33:05.661Z,980.2
2017-04-16T01:34:08.058Z,980.2
2017-04-16T01:35:10.419Z,980.3
2017-04-16T01:36:12.799Z,980.3
2017-04-16T01:37:15.190Z,980.3
2017-04-16T01:38:17.615Z,980.4
2017-04-16T01:39:20.021Z,980.4
2017-04-16T01:40:22.413Z,980.3
2017-04-16T01:41:24.804Z,980.4
2017-04-16T01:42:27.171Z,980.1
2017-04-16T01:43:29.660Z,980.3
2017-04-16T01:44:32.088Z,980.4
2017-04-16T01:45:34.486Z,980.4
2017-04-16T01:46:36.880Z,980.4
2017-04-16T01:47:39.280Z,980.4
2017-04-16T01:48:41.731Z,980.4
2017-04-16T01:49:44.168Z,980.3
2017-04-16T01:50:46.529Z,980.4
2017-04-16T01:51:48.948Z,980.3
2017-04-16T01:52:51.346Z,980.4
2017-04-16T01:53:53.737Z,980.4
2017-04-16T01:54:56.176Z,980.4
2017-04-16T01:55:58.635Z,980.4
2017-04-16T01:57:01.046Z,980.4
2017-04-16T01:58:04.177Z,980.4
2017-04-16T01:59:06.582Z,980.4
2017-04-16T02:00:08.993Z,980.3
2017-04-16T02:01:11.400Z,980.4
2017-04-16T02:02:13.761Z,980.4
2017-04-16T02:03:16.147Z,980.4
2017-04-16T02:04:18.584Z,980.4
2017-04-16T02:05:20.965Z,980.4
2017-04-16T02:06:23.362Z,980.3
2017-04-16T02:07:25.752Z,980.4
2017-04-16T02:08:28.176Z,980.3
2017-04-16T02:09:30.564Z,980.1
2017-04-16T02:10:32.998Z,980.3
2017-04-16T02:11:35.375Z,980.4
2017-04-16T02:12:38.390Z,980.4
2017-04-16T02:13:40.816Z,980.4
2017-04-16T02:14:43.197Z,980.4
2017-04-16T02:15:45.628Z,980.3
2017-04-16T02:16:47.975Z,980.4
2017-04-16T02:17:50.383Z,980.3
2017-04-16T02:18:52.757Z,980.4
2017-04-16T02:19:55.159Z,980.4
2017-04-16T02:20:57.571Z,980.4
2017-04-16T02:21:59.967Z,980.4
2017-04-16T02:23:02.346Z,980.3
2017-04-16T02:24:04.758Z,980.3
2017-04-16T02:25:07.199Z,980.3
2017-04-16T02:26:09.553Z,980.4
2017-04-16T02:27:11.926Z,980.4
2017-04-16T02:28:14.285Z,980.4
2017-04-16T02:29:16.674Z,980.2
2017-04-16T02:30:19.353Z,980.4
2017-04-16T02:31:21.748Z,980.5
2017-04-16T02:32:24.120Z,980.4
2017-04-16T02:33:26.495Z,980.4
2017-04-16T02:34:28.910Z,980.4
2017-04-16T02:35:31.305Z,980.4
2017-04-16T02:36:33.677Z,980.4
2017-04-16T02:37:36.065Z,980.4
2017-04-16T02:38:38.515Z,980.4
2017-04-16T02:39:40.909Z,980.2
2017-04-16T02:40:43.275Z,980.4
2017-04-16T02:41:45.625Z,980.4
2017-04-16T02:42:47.996Z,980.4
2017-04-16T02:43:50.413Z,980.4
2017-04-16T02:44:52.797Z,980.4
2017-04-16T02:45:55.178Z,980.4
2017-04-16T02:46:57.519Z,980.4
2017-04-16T02:47:59.894Z,980.4
2017-04-16T02:49:02.300Z,980.3
2017-04-16T02:50:04.767Z,980.4
2017-04-16T02:51:07.173Z,980.4
2017-04-16T02:52:09.579Z,980.3
2017-04-16T02:53:11.941Z,980.3
2017-04-16T02:54:14.311Z,980.3
2017-04-16T02:55:16.716Z,980.4
2017-04-16T02:56:19.110Z,980.4
2017-04-16T02:57:21.523Z,980.3
2017-04-16T02:58:23.929Z,980.4
2017-04-16T02:59:26.312Z,980.4
2017-04-16T03:00:28.759Z,980.3
2017-04-16T03:01:31.436Z,980.3
2017-04-16T03:02:33.819Z,980.4
2017-04-16T03:03:36.178Z,980.3
2017-04-16T03:04:38.561Z,980.4
2017-04-16T03:05:40.969Z,980.4
2017-04-16T03:06:43.347Z,980.4
2017-04-16T03:07:45.763Z,980.4
2017-04-16T03:08:48.158Z,980.4
2017-04-16T03:09:50.556Z,980.5
2017-04-16T03:10:52.973Z,980.5
2017-04-16T03:11:55.346Z,980.4
2017-04-16T03:12:57.765Z,980.4
2017-04-16T03:14:00.125Z,980.5
2017-04-16T03:15:02.782Z,980.4
2017-04-16T03:16:05.164Z,980.4
2017-04-16T03:17:07.549Z,980.4
2017-04-16T03:18:09.907Z,980.4
2017-04-16T03:19:12.280Z,980.4
2017-04-16T03:20:14.641Z,980.4
2017-04-16T03:21:17.047Z,980.4
2017-04-16T03:22:19.473Z,980.4
2017-04-16T03:23:21.848Z,980.5
2017-04-16T03:24:24.225Z,980.5
2017-04-16T03:25:26.612Z,980.2
2017-04-16T03:26:29.005Z,980.5
2017-04-16T03:27:31.419Z,980.5
2017-04-16T03:28:33.777Z,980.4
2017-04-16T03:29:36.178Z,980.5
2017-04-16T03:30:38.607Z,980.5
2017-04-16T03:31:41.056Z,980.5
2017-04-16T03:32:43.740Z,980.5
2017-04-16T03:33:46.098Z,980.4
2017-04-16T03:34:48.481Z,980.5
2017-04-16T03:35:50.865Z,980.4
2017-04-16T03:36:53.205Z,980.6
2017-04-16T03:37:55.620Z,980.4
2017-04-16T03:38:58.059Z,980.5
2017-04-16T03:40:00.451Z,980.5
2017-04-16T03:41:02.828Z,980.5
2017-04-16T03:42:05.574Z,980.5
2017-04-16T03:43:08.026Z,980.4
2017-04-16T03:44:10.399Z,980.5
2017-04-16T03:45:12.742Z,980.5
2017-04-16T13:19:35.541Z,981.3
2017-04-16T13:20:38.359Z,981.5
2017-04-16T13:21:41.129Z,981
2017-04-16T13:22:43.769Z,981.6
2017-04-16T13:23:46.379Z,981.6
2017-04-16T13:24:48.978Z,981.6
2017-04-16T13:25:51.585Z,981.5
2017-04-16T13:26:54.258Z,981.6
2017-04-16T13:27:57.396Z,981.4
2017-04-16T13:28:59.921Z,981.5
2017-04-16T13:30:02.513Z,981.4
2017-04-16T13:31:05.062Z,981.5
2017-04-16T13:32:09.025Z,981.5
2017-04-16T13:33:11.718Z,981.4
2017-04-16T13:34:15.002Z,981.3
2017-04-16T13:35:18.355Z,981.3
2017-04-16T13:36:20.998Z,981.2
2017-04-16T13:37:23.817Z,981.2
2017-04-16T13:38:27.323Z,981.2
2017-04-16T13:39:30.826Z,980.7
2017-04-16T13:40:33.683Z,981
2017-04-16T13:41:36.782Z,981.1
2017-04-16T13:42:40.427Z,981.1
2017-04-16T13:43:44.027Z,981.1
2017-04-16T13:44:46.590Z,981
2017-04-16T13:45:50.847Z,981.1
2017-04-16T13:46:53.977Z,981.2
2017-04-16T13:47:56.694Z,981.3
2017-04-16T14:20:44.319Z,980.9
2017-04-16T14:21:46.938Z,980.9
2017-04-16T14:22:49.609Z,980.9
2017-04-16T14:23:52.737Z,981
2017-04-16T14:24:56.140Z,980.5
2017-04-16T14:26:00.283Z,980.9
2017-04-16T14:27:02.928Z,980.9
2017-04-16T14:28:06.180Z,980.9
2017-04-16T14:29:10.146Z,980.5
2017-04-16T14:30:12.974Z,981
2017-04-16T14:31:17.200Z,981
2017-04-16T14:32:21.207Z,980.6
2017-04-16T14:33:26.000Z,980.6
2017-04-16T14:34:29.878Z,981
2017-04-16T14:35:32.777Z,981
2017-04-16T14:36:35.630Z,981
2017-04-16T14:37:39.664Z,981
2017-04-16T14:38:43.665Z,981
2017-04-16T14:39:47.862Z,981
2017-04-16T14:40:52.695Z,980.7
2017-04-16T14:41:59.939Z,980.6
2017-04-16T14:43:04.904Z,981.1
2017-04-16T14:44:07.676Z,981
2017-04-16T14:45:12.158Z,981
2017-04-16T14:46:25.765Z,980.7
2017-04-16T14:47:30.270Z,981
2017-04-16T14:48:34.743Z,981
2017-04-16T14:49:39.724Z,980.9
2017-04-16T14:50:45.270Z,981
2017-04-16T14:51:48.587Z,981.1
2017-04-16T14:52:51.552Z,981.1
2017-04-16T14:53:54.387Z,981.2
2017-04-16T14:54:57.900Z,981.2
2017-04-16T14:56:00.616Z,981.1
2017-04-16T14:57:03.400Z,981.1
2017-04-16T14:58:05.980Z,981
2017-04-16T14:59:08.701Z,981.2
2017-04-16T15:00:11.314Z,981.2
2017-04-16T15:01:14.038Z,981.2
2017-04-16T15:02:17.590Z,981.2
2017-04-16T15:03:20.289Z,981.2
2017-04-16T15:04:31.921Z,981.2
2017-04-16T15:05:34.521Z,981.2
2017-04-16T15:06:37.150Z,981.2
2017-04-16T15:07:39.787Z,981.2
2017-04-16T15:08:42.527Z,981.2
2017-04-16T15:09:46.803Z,981.2
2017-04-16T15:10:50.418Z,981.2
2017-04-16T15:11:53.302Z,981.1
2017-04-16T15:12:56.201Z,981.1
2017-04-16T15:13:59.009Z,981.1
2017-04-16T15:15:02.652Z,981.1
2017-04-16T15:16:05.777Z,981
2017-04-16T15:17:09.373Z,981.1
2017-04-16T15:18:12.368Z,981
2017-04-16T15:19:18.144Z,981.1
2017-04-16T15:20:21.137Z,981.1
2017-04-16T15:21:24.164Z,981.2
2017-04-16T15:22:27.967Z,981.2
2017-04-16T15:23:30.661Z,981.2
2017-04-16T15:24:34.262Z,981.3
2017-04-16T15:25:37.287Z,980.9
2017-04-16T15:26:40.049Z,980.8
2017-04-16T15:27:47.533Z,980.8
2017-04-16T15:28:50.507Z,981.2
2017-04-16T15:29:53.289Z,981.2
2017-04-16T15:30:56.753Z,981.2
2017-04-16T15:32:00.733Z,981.3
2017-04-16T15:33:05.640Z,981.2
2017-04-16T15:34:12.003Z,981.2
2017-04-16T15:35:18.744Z,980.9
2017-04-16T15:36:22.546Z,981.3
2017-04-16T15:37:25.364Z,981.2
2017-04-16T15:38:28.823Z,981.2
2017-04-16T15:39:32.101Z,981.2
2017-04-16T15:40:35.072Z,981.3
2017-04-16T15:41:37.787Z,981.2
2017-04-16T15:42:41.837Z,981.3
2017-04-16T15:43:44.473Z,981.3
2017-04-16T15:44:47.922Z,981.4
2017-04-16T15:45:51.099Z,981.4
2017-04-16T15:46:53.883Z,981.3
2017-04-16T15:47:56.509Z,981.4
2017-04-16T15:48:59.345Z,981.3
2017-04-16T15:50:02.075Z,981.4
2017-04-16T15:51:05.416Z,981.4
2017-04-16T15:52:08.182Z,981.4
2017-04-16T15:53:11.228Z,981
2017-04-16T15:54:15.408Z,981.4
2017-04-16T15:55:18.267Z,981.4
2017-04-16T15:56:21.028Z,980.9
2017-04-16T15:57:24.403Z,981.3
2017-04-16T15:58:27.396Z,981.4
2017-04-16T15:59:30.098Z,981.3
2017-04-16T16:00:32.701Z,981.4
2017-04-16T16:01:35.576Z,981.4
2017-04-16T16:02:39.117Z,981.4
2017-04-16T16:03:42.265Z,981.5
2017-04-16T16:04:44.873Z,981.5
2017-04-16T16:05:47.499Z,981.6
2017-04-16T16:06:51.189Z,981.7
2017-04-16T16:07:54.096Z,981.8
2017-04-16T16:08:56.899Z,981.8
2017-04-16T16:09:59.623Z,981.6
2017-04-16T16:11:02.299Z,981.8
2017-04-16T16:12:04.878Z,981.8
2017-04-16T16:13:09.166Z,981.8
2017-04-16T16:14:11.903Z,981.8
2017-04-16T16:15:15.164Z,981.8
2017-04-16T16:16:17.855Z,981.8
2017-04-16T16:17:20.488Z,981.9
2017-04-16T16:18:23.858Z,982
2017-04-16T16:19:26.639Z,981.9
2017-04-16T16:20:29.280Z,981.9
2017-04-16T16:21:31.990Z,982
2017-04-16T16:22:34.585Z,982
2017-04-16T16:23:38.036Z,982
2017-04-16T16:24:41.234Z,981.9
2017-04-16T16:25:45.012Z,981.9
2017-04-16T16:26:47.689Z,982
2017-04-16T16:27:50.735Z,982
2017-04-16T16:28:53.405Z,982
2017-04-16T16:29:56.084Z,982
2017-04-16T16:30:58.878Z,982
2017-04-16T16:32:01.553Z,982
2017-04-16T16:33:04.165Z,982
2017-04-16T16:34:06.925Z,982
2017-04-16T16:35:09.635Z,982
2017-04-16T16:36:12.196Z,981.9
2017-04-16T16:37:14.882Z,982
2017-04-16T16:38:18.149Z,982
2017-04-16T16:39:20.936Z,982
2017-04-16T16:40:23.692Z,981.4
2017-04-16T16:41:26.372Z,982
2017-04-16T16:42:29.393Z,982
2017-04-16T16:43:32.163Z,982
2017-04-16T16:44:35.005Z,981.9
2017-04-16T16:45:37.691Z,981.8
2017-04-16T16:46:40.427Z,981.9
2017-04-16T16:47:43.305Z,981
2017-04-16T16:48:45.886Z,981.9
2017-04-16T16:49:48.530Z,981.9
2017-04-16T16:50:51.117Z,981.9
2017-04-16T16:51:53.768Z,981.9
2017-04-16T16:52:57.300Z,981.9
2017-04-16T16:54:00.141Z,981.9
2017-04-16T16:55:03.794Z,981.9
2017-04-16T16:56:06.716Z,981.9
2017-04-16T16:57:09.857Z,981.9
2017-04-16T16:58:12.577Z,982
2017-04-16T16:59:15.947Z,981.9
2017-04-16T17:00:18.844Z,981.9
2017-04-16T17:01:23.113Z,982
2017-04-16T17:02:25.890Z,981.9
2017-04-16T17:03:28.929Z,981.9
2017-04-16T17:04:32.325Z,981.9
2017-04-16T17:05:35.410Z,981.9
2017-04-16T17:06:38.113Z,981.9
2017-04-16T17:07:49.694Z,982
2017-04-16T17:08:52.982Z,982
2017-04-16T17:09:56.343Z,982
2017-04-16T17:10:59.109Z,982
2017-04-16T17:12:02.499Z,982
2017-04-16T17:13:05.074Z,982
2017-04-16T17:14:07.761Z,982
2017-04-16T17:15:12.646Z,981.4
2017-04-16T17:16:15.534Z,982
2017-04-16T17:17:18.153Z,982.1
2017-04-16T17:18:20.971Z,981.4
2017-04-16T17:19:23.897Z,982.1
2017-04-16T17:20:26.809Z,982.1
2017-04-16T17:21:30.050Z,982.1
2017-04-16T17:22:34.059Z,982.1
2017-04-16T17:23:37.607Z,982.1
2017-04-16T17:24:40.542Z,982.1
2017-04-16T17:25:43.522Z,982.1
2017-04-16T17:26:46.141Z,982.1
2017-04-16T17:27:48.928Z,982.1
2017-04-16T17:28:51.765Z,982.1
2017-04-16T17:29:55.487Z,982.1
2017-04-16T17:31:00.945Z,982.1
2017-04-16T17:32:03.610Z,982.1
2017-04-16T17:33:06.909Z,982.1
2017-04-16T17:34:10.042Z,982.1
2017-04-16T17:35:12.678Z,982.1
2017-04-16T17:36:15.315Z,982.1
2017-04-16T17:37:18.085Z,982.1
2017-04-16T17:38:22.325Z,982.1
2017-04-16T17:39:25.638Z,981.5
2017-04-16T17:40:28.375Z,982.1
2017-04-16T17:41:31.607Z,982
2017-04-16T17:42:34.644Z,982.1
2017-04-16T17:43:38.073Z,982.1
2017-04-16T17:44:41.836Z,982.2
2017-04-16T17:45:45.858Z,982.2
2017-04-16T17:46:48.512Z,981.7
2017-04-16T17:47:51.787Z,982.2
2017-04-16T17:48:54.520Z,982
2017-04-16T17:49:58.942Z,982.1
2017-04-16T17:51:01.736Z,982.2
2017-04-16T17:52:05.223Z,981.4
2017-04-16T17:53:07.791Z,982
2017-04-16T17:54:11.391Z,982.1
2017-04-16T17:55:13.972Z,982.1
2017-04-16T17:56:16.763Z,982.2
2017-04-16T17:57:20.537Z,982.2
2017-04-16T17:58:23.187Z,982.1
2017-04-16T17:59:25.822Z,982.2
2017-04-16T18:00:28.591Z,981.3
2017-04-16T18:01:31.217Z,982.2
2017-04-16T18:02:34.685Z,982.1
2017-04-16T18:03:38.249Z,982.1
2017-04-16T18:04:41.512Z,982.2
2017-04-16T18:05:44.793Z,982.2
2017-04-16T18:06:48.025Z,982.2
2017-04-16T18:07:50.702Z,982.2
2017-04-16T18:08:53.364Z,982.3
2017-04-16T18:09:56.692Z,982.2
2017-04-16T18:11:00.375Z,982.3
2017-04-16T18:12:03.751Z,982.3
2017-04-16T18:13:06.465Z,982.3
2017-04-16T18:14:09.871Z,982.3
2017-04-16T18:15:13.171Z,982.3
2017-04-16T18:16:16.185Z,981.1
2017-04-16T18:17:18.771Z,982.3
2017-04-16T18:18:21.529Z,982.4
2017-04-16T18:19:25.939Z,982.3
2017-04-16T18:20:28.879Z,982.4
2017-04-16T18:21:31.612Z,982.3
2017-04-16T18:22:34.937Z,982.3
2017-04-16T18:23:41.206Z,982.4
2017-04-16T18:24:44.270Z,982.4
2017-04-16T18:25:47.810Z,982.4
2017-04-16T18:26:50.831Z,982.4
2017-04-16T18:27:54.480Z,981.7
2017-04-16T18:28:58.377Z,982.3
2017-04-16T18:30:03.305Z,982.4
2017-04-16T18:31:08.081Z,982.4
2017-04-16T18:32:11.341Z,982.4
2017-04-16T18:33:13.958Z,982.5
2017-04-16T18:34:17.247Z,982.5
2017-04-16T18:35:19.936Z,982.5
2017-04-16T18:36:22.529Z,982.5
2017-04-16T18:37:25.154Z,982.6
2017-04-16T18:38:27.761Z,982.6
2017-04-16T18:39:30.344Z,982.7
2017-04-16T18:40:32.943Z,982.6
2017-04-16T18:41:35.729Z,982.7
2017-04-16T18:42:38.488Z,982.7
2017-04-16T18:43:41.499Z,982.6
2017-04-16T18:44:44.257Z,982.7
2017-04-16T18:45:47.009Z,982.7
2017-04-16T18:46:50.141Z,982.6
2017-04-16T18:47:52.771Z,982.7
2017-04-16T18:48:55.375Z,982.7
2017-04-16T18:49:58.039Z,982.6
2017-04-16T18:51:01.225Z,982.7
2017-04-16T18:52:03.971Z,982.7
2017-04-16T18:53:06.458Z,982.7
2017-04-16T18:54:09.988Z,982.7
2017-04-16T18:55:12.573Z,982.7
2017-04-16T18:56:15.890Z,982.8
2017-04-16T18:57:18.842Z,982.6
2017-04-16T18:58:21.423Z,982.8
2017-04-16T18:59:24.672Z,982.8
2017-04-16T19:00:28.133Z,982.8
2017-04-16T19:01:30.833Z,982.8
2017-04-16T19:02:33.659Z,982.8
2017-04-16T19:03:36.389Z,982.8
2017-04-16T19:04:40.044Z,982.9
2017-04-16T19:05:42.673Z,982.8
2017-04-16T19:06:47.367Z,982.9
2017-04-16T19:07:50.188Z,982.9
2017-04-16T19:08:54.856Z,982.9
2017-04-16T19:09:57.536Z,982.9
2017-04-16T19:11:02.384Z,983
2017-04-16T19:12:08.183Z,982.9
2017-04-16T19:13:10.762Z,982.9
2017-04-16T19:14:14.173Z,982.9
2017-04-16T19:15:17.423Z,982.9
2017-04-16T19:16:20.785Z,982.9
2017-04-16T19:17:23.579Z,982.9
2017-04-16T19:18:26.261Z,983
2017-04-16T19:19:28.934Z,983
2017-04-16T19:20:31.587Z,983
2017-04-16T19:21:34.331Z,983
2017-04-16T19:22:37.288Z,983.1
2017-04-16T19:23:39.958Z,983.1
2017-04-16T19:24:42.659Z,983.1
2017-04-16T19:25:46.043Z,983.1
2017-04-16T19:26:48.745Z,983.1
2017-04-16T19:27:51.406Z,983.1
2017-04-16T19:28:54.158Z,983.1
2017-04-16T19:29:58.358Z,983.1
2017-04-16T19:31:01.587Z,983.1
2017-04-16T19:32:04.273Z,983.2
2017-04-16T19:33:07.445Z,983.1
2017-04-16T19:34:09.976Z,983.1
2017-04-16T19:35:13.793Z,983.1
2017-04-16T19:36:17.200Z,983.1
2017-04-16T19:37:21.510Z,983.1
2017-04-16T19:38:25.355Z,983.1
2017-04-16T19:39:30.142Z,983.1
2017-04-16T19:40:32.928Z,983
2017-04-16T19:41:35.564Z,981.9
2017-04-16T19:42:39.545Z,983.1
2017-04-16T19:43:42.914Z,982.4
2017-04-16T19:44:45.568Z,983.1
2017-04-16T19:45:49.109Z,983.1
2017-04-16T19:46:51.635Z,983
2017-04-16T19:47:56.032Z,983
2017-04-16T19:49:00.283Z,983
2017-04-16T19:50:03.444Z,983
2017-04-16T19:51:07.117Z,983
2017-04-16T19:52:11.364Z,983
2017-04-16T19:53:15.035Z,983.1
2017-04-16T19:54:19.285Z,983
2017-04-16T19:55:22.675Z,983
2017-04-16T19:56:25.427Z,983.1
2017-04-16T19:57:28.149Z,983
2017-04-16T19:58:32.717Z,983
2017-04-16T19:59:37.956Z,983.1
2017-04-16T20:00:43.560Z,983.1
2017-04-16T20:01:47.162Z,983
2017-04-16T20:02:55.077Z,983.1
2017-04-16T20:04:01.162Z,983.2
2017-04-16T20:05:08.113Z,983.2
2017-04-16T20:06:12.592Z,983.2
2017-04-16T20:07:17.752Z,983.2
2017-04-16T20:08:24.333Z,983.2
2017-04-16T20:09:28.766Z,983.2
2017-04-16T20:10:34.728Z,983.2
2017-04-16T20:11:38.203Z,983.2
2017-04-16T20:12:40.954Z,983.2
2017-04-16T20:13:46.458Z,983.3
2017-04-16T20:14:49.806Z,983.2
2017-04-16T20:15:55.493Z,983.2
2017-04-16T20:17:01.045Z,983.2
2017-04-16T20:18:04.684Z,983.2
2017-04-16T20:19:09.297Z,983.2
2017-04-16T20:20:15.252Z,983.2
2017-04-16T20:21:21.853Z,982.5
2017-04-16T20:22:26.040Z,983.2
2017-04-16T20:23:31.409Z,983.2
2017-04-16T20:24:35.876Z,983.2
2017-04-16T20:25:42.462Z,983.3
2017-04-16T20:26:48.528Z,983.2
2017-04-16T20:27:54.773Z,982
2017-04-16T20:29:01.628Z,983.2
2017-04-16T20:30:04.401Z,983.1
2017-04-16T20:31:07.741Z,983.2
2017-04-16T20:32:11.453Z,983.1
2017-04-16T20:33:15.095Z,983.1
2017-04-16T20:34:20.227Z,983.1
2017-04-16T20:35:24.171Z,983.1
2017-04-16T20:36:29.100Z,983.1
2017-04-16T20:37:33.270Z,983.1
2017-04-16T20:38:38.133Z,983.1
2017-04-16T20:39:44.056Z,983.1
2017-04-16T20:40:50.716Z,983.1
2017-04-16T20:41:55.296Z,983.1
2017-04-16T20:43:00.903Z,983
2017-04-16T20:44:04.746Z,983.1
2017-04-16T20:45:10.979Z,983.1
2017-04-16T20:46:17.144Z,983.1
2017-04-16T20:47:21.664Z,983.1
2017-04-16T20:48:25.759Z,983.1
2017-04-16T20:49:31.581Z,983.2
2017-04-16T20:50:35.213Z,983.2
2017-04-16T20:51:38.917Z,983.2
2017-04-16T20:52:43.370Z,983.2
2017-04-16T20:53:47.169Z,983.2
2017-04-16T20:54:54.601Z,983.1
2017-04-16T20:56:02.081Z,983.1
2017-04-16T20:57:07.487Z,983.1
2017-04-16T20:58:13.950Z,983.1
2017-04-16T20:59:20.911Z,983.2
2017-04-16T21:00:23.827Z,983.1
2017-04-16T21:01:27.378Z,983.2
2017-04-16T21:02:33.287Z,983.1
2017-04-16T21:03:37.517Z,983.2
2017-04-16T21:04:40.504Z,983.2
2017-04-16T21:05:44.007Z,983.2
2017-04-16T21:06:46.892Z,983.1
2017-04-16T21:07:49.809Z,983.2
2017-04-16T21:08:53.317Z,983.2
2017-04-16T21:09:55.930Z,983.2
2017-04-16T21:10:58.723Z,983.2
2017-04-16T21:12:01.418Z,983.2
2017-04-16T21:13:04.720Z,983.3
2017-04-16T21:14:07.345Z,983.3
2017-04-16T21:15:10.464Z,983.3
2017-04-16T21:16:12.944Z,983.3
2017-04-16T21:17:15.622Z,983.2
2017-04-16T21:18:18.395Z,983.3
2017-04-16T21:19:21.444Z,983.3
2017-04-16T21:20:24.947Z,983.3
2017-04-16T21:21:27.772Z,983.3
2017-04-16T21:22:30.475Z,983.3
2017-04-16T21:23:32.981Z,983.2
2017-04-16T21:24:35.504Z,983.3
2017-04-16T21:25:38.931Z,983.3
2017-04-16T21:26:41.479Z,983.3
2017-04-16T21:27:45.117Z,983.2
2017-04-16T21:28:48.664Z,982.6
2017-04-16T21:29:51.443Z,983.2
2017-04-16T21:30:54.737Z,983.2
2017-04-16T21:31:57.321Z,983.2
2017-04-16T21:32:59.828Z,983.2
2017-04-16T21:34:02.959Z,983.2
2017-04-16T21:35:05.767Z,983.2
2017-04-16T21:36:09.932Z,983.2
2017-04-16T21:37:13.160Z,983.2
2017-04-16T21:38:16.576Z,981.9
2017-04-16T21:39:19.277Z,983.1
2017-04-16T21:40:22.741Z,983.1
2017-04-16T21:41:26.896Z,983.1
2017-04-16T21:42:30.259Z,982.5
2017-04-16T21:43:32.936Z,983.1
2017-04-16T21:44:35.644Z,983.1
2017-04-16T21:45:38.506Z,983
2017-04-16T21:46:43.026Z,983.1
2017-04-16T21:47:45.662Z,983.1
2017-04-16T21:48:49.389Z,983.1
2017-04-16T21:49:52.086Z,983.1
2017-04-16T21:50:54.646Z,983.1
2017-04-16T21:51:57.196Z,983.1
2017-04-16T21:52:59.721Z,983.1
2017-04-16T21:54:02.306Z,983.1
2017-04-16T21:55:04.893Z,983.1
2017-04-16T21:56:07.509Z,983.1
2017-04-16T21:57:10.054Z,983.1
2017-04-16T21:58:12.629Z,983.1
2017-04-16T21:59:15.199Z,983.1
2017-04-16T22:00:17.687Z,983.1
2017-04-16T22:01:21.057Z,983.1
2017-04-16T22:02:23.675Z,983.1
2017-04-16T22:03:26.254Z,983.1
2017-04-16T22:04:28.832Z,983.1
2017-04-16T22:05:31.375Z,983.1
2017-04-16T22:06:34.161Z,983
2017-04-16T22:07:37.016Z,983.1
2017-04-16T22:08:39.553Z,983.1
2017-04-16T22:09:42.470Z,983.1
2017-04-16T22:10:45.026Z,983
2017-04-16T22:11:47.628Z,983.1
2017-04-16T22:12:50.513Z,982.4
2017-04-16T22:13:53.104Z,983.1
2017-04-16T22:14:55.588Z,983
2017-04-16T22:15:58.168Z,983
2017-04-16T22:17:00.677Z,983.1
2017-04-16T22:18:03.848Z,983.1
2017-04-16T22:19:06.357Z,983.1
2017-04-16T22:20:08.976Z,983
2017-04-16T22:21:11.530Z,983
2017-04-16T22:22:14.116Z,983
2017-04-16T22:23:16.632Z,983
2017-04-16T22:24:19.154Z,983
2017-04-16T22:25:21.633Z,983
2017-04-16T22:26:24.104Z,983
2017-04-16T22:27:26.581Z,983
2017-04-16T22:28:29.108Z,983
2017-04-16T22:29:31.611Z,983.1
2017-04-16T22:30:34.080Z,983.1
2017-04-16T22:31:36.613Z,983.1
2017-04-16T22:32:39.238Z,983.1
2017-04-16T22:33:41.680Z,983.1
2017-04-16T22:34:44.637Z,983.1
2017-04-16T22:35:47.135Z,983.1
2017-04-16T22:36:49.716Z,983.1
2017-04-16T22:37:52.245Z,983.1
2017-04-16T22:38:54.776Z,983.1
2017-04-16T22:39:57.255Z,983.1
2017-04-16T22:40:59.765Z,983.2
2017-04-16T22:42:02.331Z,983.2
2017-04-16T22:43:04.811Z,983.2
2017-04-16T22:44:07.432Z,983.2
2017-04-16T22:45:10.635Z,983.2
2017-04-16T22:46:13.097Z,983.2
2017-04-16T22:47:15.551Z,983.2
2017-04-16T22:48:18.058Z,983.2
2017-04-16T22:49:20.558Z,983.2
2017-04-16T22:50:23.001Z,983.2
2017-04-16T22:51:25.472Z,983.2
2017-04-16T22:52:27.921Z,983.2
2017-04-16T22:53:30.337Z,983.2
2017-04-16T22:54:32.780Z,983.2
2017-04-16T22:55:35.352Z,983.2
2017-04-16T22:56:37.787Z,983.1
2017-04-16T22:57:40.260Z,983.1
2017-04-16T22:58:42.754Z,983.1
2017-04-16T22:59:45.140Z,983
2017-04-16T23:00:47.554Z,983
2017-04-16T23:01:49.982Z,982.9
2017-04-16T23:02:52.461Z,982.9
2017-04-16T23:03:54.921Z,982.9
2017-04-16T23:04:57.418Z,982.9
2017-04-16T23:06:00.157Z,982.9
2017-04-16T23:07:02.595Z,982.9
2017-04-16T23:08:05.014Z,983
2017-04-16T23:09:07.540Z,982.9
2017-04-16T23:10:10.002Z,982.9
2017-04-16T23:11:13.392Z,982.9
2017-04-16T23:12:15.825Z,982.9
2017-04-16T23:13:18.219Z,983
2017-04-16T23:14:20.644Z,982.9
2017-04-16T23:15:23.079Z,982.9
2017-04-16T23:16:25.521Z,982.9
2017-04-16T23:17:27.969Z,982.9
2017-04-16T23:18:30.456Z,982.9
2017-04-16T23:19:32.908Z,982.9
2017-04-16T23:20:35.389Z,982.9
2017-04-16T23:21:37.826Z,982.9
2017-04-16T23:22:40.281Z,982.8
2017-04-16T23:23:42.712Z,982.8
2017-04-16T23:24:45.179Z,982.8
2017-04-16T23:25:47.630Z,982.8
2017-04-16T23:26:50.137Z,982.8
2017-04-16T23:27:52.580Z,982.8
2017-04-16T23:28:55.027Z,982.8
2017-04-16T23:29:57.472Z,982.8
2017-04-16T23:30:59.896Z,982.8
2017-04-16T23:32:02.327Z,982.8
2017-04-16T23:33:04.726Z,982.8
2017-04-16T23:34:07.259Z,982.8
2017-04-16T23:35:09.723Z,982.8
2017-04-16T23:36:12.141Z,982.8
2017-04-16T23:37:14.561Z,982.9
2017-04-16T23:38:17.009Z,982.9
2017-04-16T23:39:19.420Z,982.9
2017-04-16T23:40:21.856Z,982.9
2017-04-16T23:41:24.256Z,982.9
2017-04-16T23:42:26.672Z,982.9
2017-04-16T23:43:29.088Z,982.9
2017-04-16T23:44:31.498Z,983